createdAt,value
2024-04-21T00:01:27.621Z,2.50
2024-04-21T00:03:55.030Z,2.67
2024-04-21T00:06:24.885Z,2.33
2024-04-21T00:08:51.914Z,2.17
2024-04-21T00:11:21.855Z,2.20
2024-04-21T00:13:51.517Z,2.13
2024-04-21T00:16:21.269Z,2.37
2024-04-21T00:18:48.376Z,2.20
2024-04-21T00:21:18.081Z,2.30
2024-04-21T00:23:45.075Z,2.10
2024-04-21T00:26:14.746Z,2.30
2024-04-21T00:28:41.717Z,2.33
2024-04-21T00:31:14.696Z,2.13
2024-04-21T00:33:41.811Z,2.10
2024-04-21T00:36:11.527Z,2.20
2024-04-21T00:38:39.323Z,2.10
2024-04-21T00:41:09.374Z,2.00
2024-04-21T00:43:36.432Z,2.17
2024-04-21T00:46:06.869Z,2.20
2024-04-21T00:48:38.024Z,2.03
2024-04-21T00:51:09.125Z,2.27
2024-04-21T00:53:36.406Z,1.97
2024-04-21T00:56:07.187Z,2.10
2024-04-21T00:58:35.061Z,1.83
2024-04-21T01:01:05.722Z,1.90
2024-04-21T01:03:37.013Z,2.07
2024-04-21T01:06:07.149Z,1.80
2024-04-21T01:08:34.303Z,1.97
2024-04-21T01:11:04.495Z,2.10
2024-04-21T01:13:31.568Z,1.67
2024-04-21T01:16:01.284Z,1.90
2024-04-21T01:18:28.311Z,1.80
2024-04-21T01:21:00.648Z,1.87
2024-04-21T01:23:30.374Z,1.73
2024-04-21T01:26:00.253Z,1.90
2024-04-21T01:28:27.262Z,1.80
2024-04-21T01:30:57.021Z,1.80
2024-04-21T01:33:24.084Z,1.70
2024-04-21T01:35:53.887Z,1.73
2024-04-21T01:38:20.887Z,1.57
2024-04-21T01:40:53.541Z,2.00
2024-04-21T01:43:20.619Z,1.50
2024-04-21T01:45:50.313Z,1.97
2024-04-21T01:48:17.826Z,2.00
2024-04-21T01:50:49.760Z,1.97
2024-04-21T01:53:17.099Z,1.80
2024-04-21T01:55:46.779Z,2.17
2024-04-21T01:58:16.553Z,1.63
2024-04-21T02:00:46.421Z,1.63
2024-04-21T02:03:13.446Z,1.97
2024-04-21T02:05:44.456Z,1.50
2024-04-21T02:08:11.464Z,1.80
2024-04-21T02:10:41.135Z,2.00
2024-04-21T02:13:08.254Z,1.70
2024-04-21T02:15:40.551Z,1.83
2024-04-21T02:18:07.709Z,1.97
2024-04-21T02:20:37.390Z,1.90
2024-04-21T02:23:04.776Z,1.70
2024-04-21T02:25:34.590Z,1.70
2024-04-21T02:28:01.666Z,1.80
2024-04-21T02:30:31.341Z,1.60
2024-04-21T02:33:03.187Z,1.80
2024-04-21T02:35:33.462Z,1.60
2024-04-21T02:38:00.571Z,1.70
2024-04-21T02:40:31.965Z,1.67
2024-04-21T02:42:59.078Z,1.70
2024-04-21T02:45:28.720Z,2.00
2024-04-21T02:47:55.816Z,1.80
2024-04-21T02:50:28.234Z,1.43
2024-04-21T02:52:55.275Z,1.43
2024-04-21T02:55:25.657Z,1.80
2024-04-21T02:57:52.697Z,1.80
2024-04-21T03:00:22.416Z,1.73
2024-04-21T03:02:49.461Z,1.93
2024-04-21T03:05:19.254Z,1.50
2024-04-21T03:07:49.342Z,1.67
2024-04-21T03:10:19.310Z,1.97
2024-04-21T03:12:47.327Z,1.90
2024-04-21T03:15:17.160Z,1.80
2024-04-21T03:17:44.152Z,1.70
2024-04-21T03:20:13.852Z,1.97
2024-04-21T03:22:40.874Z,1.90
2024-04-21T03:25:13.263Z,1.90
2024-04-21T03:27:40.317Z,1.63
2024-04-21T03:30:11.035Z,1.80
2024-04-21T03:32:38.114Z,1.80
2024-04-21T03:35:08.421Z,2.00
2024-04-21T03:37:38.099Z,2.00
2024-04-21T03:40:09.267Z,1.80
2024-04-21T03:42:41.685Z,1.80
2024-04-21T03:45:11.405Z,2.13
2024-04-21T03:47:38.547Z,1.80
2024-04-21T03:50:09.725Z,1.70
2024-04-21T03:52:36.763Z,1.77
2024-04-21T03:55:06.772Z,1.57
2024-04-21T03:57:33.808Z,1.93
2024-04-21T04:00:06.532Z,2.00
2024-04-21T04:02:33.513Z,2.10
2024-04-21T04:05:03.187Z,1.60
2024-04-21T04:07:30.195Z,1.70
2024-04-21T04:09:59.829Z,1.90
2024-04-21T04:12:26.952Z,1.67
2024-04-21T04:14:56.757Z,1.97
2024-04-21T04:17:26.533Z,1.90
2024-04-21T04:19:56.222Z,1.80
2024-04-21T04:22:23.301Z,1.60
2024-04-21T04:24:53.280Z,2.10
2024-04-21T04:27:20.393Z,1.80
2024-04-21T04:29:50.051Z,2.20
2024-04-21T04:32:17.149Z,1.93
2024-04-21T04:34:49.449Z,1.90
2024-04-21T04:37:16.600Z,1.80
2024-04-21T04:39:46.283Z,1.83
2024-04-21T04:42:13.369Z,1.70
2024-04-21T04:44:43.606Z,1.77
2024-04-21T04:47:10.610Z,1.80
2024-04-21T04:49:40.276Z,1.80
2024-04-21T04:52:12.062Z,1.77
2024-04-21T04:54:42.333Z,1.77
2024-04-21T04:57:09.353Z,2.10
2024-04-21T04:59:39.772Z,2.30
2024-04-21T05:02:06.781Z,2.23
2024-04-21T05:04:36.665Z,2.20
2024-04-21T05:07:03.956Z,2.27
2024-04-21T05:09:36.279Z,2.50
2024-04-21T05:12:03.520Z,2.57
2024-04-21T05:14:33.263Z,3.00
2024-04-21T05:17:00.244Z,2.77
2024-04-21T05:19:30.139Z,2.50
2024-04-21T05:21:58.625Z,2.63
2024-04-21T05:24:28.970Z,2.73
2024-04-21T05:26:58.911Z,2.63
2024-04-21T05:29:29.914Z,2.80
2024-04-21T05:53:43.408Z,3.13
2024-04-21T05:56:30.578Z,3.27
2024-04-21T05:59:19.454Z,3.50
2024-04-21T06:02:01.206Z,3.80
2024-04-21T06:04:51.144Z,3.60
2024-04-21T06:07:42.056Z,3.57
2024-04-21T06:10:24.616Z,3.23
2024-04-21T06:13:01.570Z,5.43
2024-04-21T06:15:56.817Z,5.13
2024-04-21T06:18:33.570Z,4.23
2024-04-21T06:21:16.596Z,7.53
2024-04-21T06:23:58.479Z,5.57
2024-04-21T06:26:39.159Z,4.87
2024-04-21T06:29:28.893Z,4.00
2024-04-21T06:32:25.092Z,3.70
2024-04-21T06:35:01.756Z,4.20
2024-04-21T06:37:51.425Z,4.07
2024-04-21T06:40:42.840Z,5.17
2024-04-21T06:43:23.768Z,4.60
2024-04-21T06:46:13.894Z,4.07
2024-04-21T06:48:52.022Z,4.03
2024-04-21T06:51:31.058Z,3.87
2024-04-21T06:54:08.318Z,4.10
2024-04-21T06:56:57.703Z,3.97
2024-04-21T06:59:35.098Z,4.80
2024-04-21T07:02:23.578Z,5.00
2024-04-21T07:05:10.590Z,4.03
2024-04-21T07:07:50.202Z,3.60
2024-04-21T07:10:33.520Z,3.90
2024-04-21T07:13:26.304Z,3.30
2024-04-21T07:16:15.131Z,3.47
2024-04-21T07:18:56.449Z,3.80
2024-04-21T07:21:38.635Z,3.87
2024-04-21T07:24:14.535Z,4.00
2024-04-21T07:26:49.323Z,3.37
2024-04-21T07:29:26.937Z,4.03
2024-04-21T07:32:11.452Z,4.03
2024-04-21T07:35:01.266Z,4.57
2024-04-21T07:37:35.062Z,4.00
2024-04-21T07:40:16.384Z,3.47
2024-04-21T07:42:48.749Z,3.23
2024-04-21T07:45:27.929Z,2.73
2024-04-21T07:48:02.959Z,3.07
2024-04-21T07:50:38.687Z,3.03
2024-04-21T07:53:11.528Z,3.23
2024-04-21T07:55:44.857Z,3.00
2024-04-21T07:58:19.876Z,3.03
2024-04-21T08:00:58.566Z,3.20
2024-04-21T08:03:46.294Z,2.70
2024-04-21T08:06:32.498Z,2.70
2024-04-21T08:09:11.570Z,2.53
2024-04-21T08:12:06.483Z,2.63
2024-04-21T08:14:49.116Z,2.60
2024-04-21T08:17:18.855Z,2.80
2024-04-21T08:19:48.631Z,3.17
2024-04-21T08:22:18.371Z,3.20
2024-04-21T08:24:45.412Z,2.73
2024-04-21T08:27:15.607Z,3.80
2024-04-21T08:29:43.126Z,2.43
2024-04-21T08:32:12.903Z,2.57
2024-04-21T08:34:40.897Z,2.70
2024-04-21T08:37:13.520Z,2.30
2024-04-21T08:39:40.541Z,2.53
2024-04-21T08:42:12.623Z,2.60
2024-04-21T08:44:39.752Z,2.50
2024-04-21T08:47:11.510Z,2.77
2024-04-21T08:49:38.839Z,2.37
2024-04-21T08:52:14.854Z,2.90
2024-04-21T08:54:42.277Z,2.40
2024-04-21T08:57:12.308Z,2.80
2024-04-21T08:59:42.826Z,2.80
2024-04-21T09:02:15.146Z,2.40
2024-04-21T09:04:44.964Z,2.30
2024-04-21T09:07:19.746Z,2.30
2024-04-21T09:09:47.290Z,2.00
2024-04-21T09:12:17.962Z,2.40
2024-04-21T09:14:46.153Z,2.20
2024-04-21T09:17:15.965Z,2.37
2024-04-21T09:19:43.159Z,2.10
2024-04-21T09:22:13.607Z,2.47
2024-04-21T09:24:44.997Z,2.50
2024-04-21T09:27:14.775Z,2.60
2024-04-21T09:29:42.499Z,2.60
2024-04-21T09:32:14.642Z,2.43
2024-04-21T09:34:41.812Z,2.20
2024-04-21T09:37:12.412Z,2.17
2024-04-21T09:39:43.257Z,2.03
2024-04-21T09:42:19.543Z,2.50
2024-04-21T09:44:48.347Z,2.20
2024-04-21T09:47:17.837Z,2.43
2024-04-21T09:49:45.564Z,2.37
2024-04-21T09:52:15.825Z,2.53
2024-04-21T09:54:45.357Z,2.57
2024-04-21T09:57:19.348Z,2.17
2024-04-21T09:59:48.191Z,2.27
2024-04-21T10:02:23.153Z,2.20
2024-04-21T10:04:53.537Z,1.70
2024-04-21T10:07:27.744Z,1.90
2024-04-21T10:09:59.224Z,2.00
2024-04-21T10:12:29.687Z,2.20
2024-04-21T10:14:57.512Z,2.10
2024-04-21T10:17:26.957Z,1.80
2024-04-21T10:20:02.702Z,2.10
2024-04-21T10:22:32.133Z,2.50
2024-04-21T10:25:03.383Z,2.07
2024-04-21T10:27:33.065Z,1.70
2024-04-21T10:30:12.130Z,1.90
2024-04-21T10:32:41.568Z,1.70
2024-04-21T10:35:08.493Z,1.77
2024-04-21T10:37:37.847Z,1.23
2024-04-21T10:40:08.824Z,1.50
2024-04-21T10:42:39.027Z,1.80
2024-04-21T10:45:07.496Z,1.67
2024-04-21T10:47:36.874Z,1.90
2024-04-21T10:50:04.805Z,1.70
2024-04-21T10:52:34.407Z,1.37
2024-04-21T10:55:02.535Z,1.67
2024-04-21T10:57:35.069Z,1.53
2024-04-21T11:00:01.834Z,1.77
2024-04-21T11:02:31.266Z,1.57
2024-04-21T11:04:58.282Z,1.40
2024-04-21T11:07:27.768Z,1.27
2024-04-21T11:09:58.255Z,1.20
2024-04-21T11:12:26.011Z,1.53
2024-04-21T11:15:03.051Z,1.50
2024-04-21T11:17:29.886Z,1.50
2024-04-21T11:19:59.290Z,1.27
2024-04-21T11:22:27.819Z,1.50
2024-04-21T11:24:57.989Z,1.70
2024-04-21T11:27:24.722Z,2.13
2024-04-21T11:29:54.056Z,2.40
2024-04-21T11:32:23.551Z,2.47
2024-04-21T11:34:53.515Z,2.50
2024-04-21T11:37:20.967Z,2.60
2024-04-21T11:39:50.657Z,2.40
2024-04-21T11:42:18.129Z,1.77
2024-04-21T11:44:47.877Z,1.60
2024-04-21T11:47:23.650Z,1.70
2024-04-21T11:49:53.069Z,1.60
2024-04-21T11:52:19.873Z,1.67
2024-04-21T11:54:49.216Z,1.43
2024-04-21T11:57:15.959Z,1.43
2024-04-21T11:59:45.890Z,1.37
2024-04-21T12:02:12.915Z,1.47
2024-04-21T12:04:44.948Z,1.40
2024-04-21T12:07:11.822Z,1.13
2024-04-21T12:09:41.235Z,1.60
2024-04-21T12:12:08.104Z,1.90
2024-04-21T12:14:37.444Z,1.83
2024-04-21T12:17:04.593Z,2.60
2024-04-21T12:19:35.693Z,2.50
2024-04-21T12:22:05.335Z,1.90
2024-04-21T12:24:34.661Z,1.93
2024-04-21T12:27:01.604Z,1.43
2024-04-21T12:29:30.946Z,1.47
2024-04-21T12:31:58.457Z,1.30
2024-04-21T12:34:27.946Z,1.20
2024-04-21T12:36:55.184Z,1.17
2024-04-21T12:39:27.687Z,1.23
2024-04-21T12:41:54.506Z,1.40
2024-04-21T12:44:23.881Z,1.30
2024-04-21T12:46:51.790Z,1.37
2024-04-21T12:49:21.254Z,1.50
2024-04-21T12:51:48.195Z,1.20
2024-04-21T12:54:20.678Z,1.23
2024-04-21T12:56:51.770Z,1.20
2024-04-21T12:59:21.322Z,1.67
2024-04-21T13:01:48.602Z,1.70
2024-04-21T13:04:18.445Z,1.60
2024-04-21T13:06:45.278Z,1.90
2024-04-21T13:09:14.627Z,1.60
2024-04-21T13:11:41.594Z,1.70
2024-04-21T13:14:13.491Z,1.27
2024-04-21T13:16:40.338Z,1.40
2024-04-21T13:19:11.100Z,1.40
2024-04-21T13:21:38.739Z,1.30
2024-04-21T13:24:08.918Z,1.43
2024-04-21T13:26:35.773Z,1.20
2024-04-21T13:29:05.435Z,1.17
2024-04-21T13:31:35.244Z,1.13
2024-04-21T13:34:04.847Z,1.00
2024-04-21T13:36:37.553Z,1.00
2024-04-21T13:39:09.303Z,1.30
2024-04-21T13:41:36.579Z,1.40
2024-04-21T13:44:06.231Z,1.00
2024-04-21T13:46:35.607Z,2.17
2024-04-21T13:49:05.128Z,1.17
2024-04-21T13:51:33.246Z,1.30
2024-04-21T13:54:03.420Z,1.17
2024-04-21T13:56:30.285Z,1.27
2024-04-21T13:58:59.678Z,1.40
2024-04-21T14:01:26.631Z,1.30
2024-04-21T14:03:58.820Z,1.20
2024-04-21T14:06:30.505Z,1.63
2024-04-21T14:09:00.308Z,1.40
2024-04-21T14:11:27.288Z,1.20
2024-04-21T14:13:56.663Z,0.80
2024-04-21T14:16:23.555Z,1.40
2024-04-21T14:18:54.507Z,1.17
2024-04-21T14:21:26.351Z,1.40
2024-04-21T14:23:58.395Z,1.27
2024-04-21T14:26:26.827Z,1.27
2024-04-21T14:28:56.206Z,1.30
2024-04-21T14:31:23.837Z,1.27
2024-04-21T14:33:53.799Z,1.30
2024-04-21T14:36:22.199Z,1.33
2024-04-21T14:38:55.534Z,1.30
2024-04-21T14:41:22.400Z,1.50
2024-04-21T14:43:51.872Z,1.23
2024-04-21T14:46:18.652Z,1.40
2024-04-21T14:48:48.000Z,1.20
2024-04-21T14:51:14.719Z,1.20
2024-04-21T14:53:44.018Z,1.20
2024-04-21T14:56:14.222Z,1.20
2024-04-21T14:58:43.548Z,1.10
2024-04-21T15:01:10.414Z,1.00
2024-04-21T15:03:39.795Z,1.20
2024-04-21T15:06:07.514Z,1.30
2024-04-21T15:08:36.880Z,0.97
2024-04-21T15:11:03.965Z,1.33
2024-04-21T15:13:35.972Z,1.23
2024-04-21T15:16:02.956Z,1.13
2024-04-21T15:18:32.443Z,1.10
2024-04-21T15:20:59.270Z,1.00
2024-04-21T15:23:29.461Z,1.13
2024-04-21T15:25:56.292Z,1.10
2024-04-21T15:28:25.633Z,1.10
2024-04-21T15:30:55.383Z,1.20
2024-04-21T15:33:24.812Z,1.20
2024-04-21T15:35:51.578Z,1.20
2024-04-21T15:38:20.902Z,1.00
2024-04-21T15:40:47.650Z,1.27
2024-04-21T15:43:17.001Z,1.40
2024-04-21T15:45:44.266Z,1.37
2024-04-21T15:48:16.174Z,1.30
2024-04-21T15:50:43.029Z,1.10
2024-04-21T15:53:12.346Z,1.00
2024-04-21T15:55:39.172Z,1.00
2024-04-21T15:58:09.577Z,1.13
2024-04-21T16:00:44.319Z,0.80
2024-04-21T16:03:16.271Z,1.00
2024-04-21T16:05:44.882Z,1.10
2024-04-21T16:08:14.790Z,1.07
2024-04-21T16:10:42.680Z,1.03
2024-04-21T16:13:12.066Z,1.20
2024-04-21T16:15:38.999Z,1.00
2024-04-21T16:18:08.813Z,0.90
2024-04-21T16:20:38.233Z,0.87
2024-04-21T16:23:07.703Z,1.00
2024-04-21T16:25:35.014Z,1.00
2024-04-21T16:28:08.809Z,1.10
2024-04-21T16:30:37.088Z,1.10
2024-04-21T16:33:08.117Z,1.20
2024-04-21T16:35:38.597Z,1.00
2024-04-21T16:38:08.887Z,1.20
2024-04-21T16:40:37.585Z,0.80
2024-04-21T16:43:08.868Z,1.10
2024-04-21T16:45:36.689Z,1.07
2024-04-21T16:48:09.651Z,1.20
2024-04-21T16:50:40.153Z,1.30
2024-04-21T16:53:11.092Z,0.87
2024-04-21T16:55:39.439Z,1.20
2024-04-21T16:58:10.673Z,0.80
2024-04-21T17:00:38.423Z,1.00
2024-04-21T17:03:09.206Z,1.00
2024-04-21T17:05:39.707Z,1.00
2024-04-21T17:08:12.355Z,0.80
2024-04-21T17:10:40.659Z,1.00
2024-04-21T17:13:10.964Z,1.20
2024-04-21T17:15:38.773Z,1.10
2024-04-21T17:18:08.764Z,1.20
2024-04-21T17:20:36.587Z,0.97
2024-04-21T17:23:09.509Z,1.20
2024-04-21T17:25:37.052Z,1.10
2024-04-21T17:28:07.494Z,1.30
2024-04-21T17:30:34.750Z,1.50
2024-04-21T17:33:05.295Z,1.70
2024-04-21T17:35:33.051Z,1.90
2024-04-21T17:38:03.379Z,2.10
2024-04-21T17:40:33.123Z,1.97
2024-04-21T17:43:02.893Z,2.60
2024-04-21T17:45:32.635Z,2.00
2024-04-21T17:48:04.508Z,1.90
2024-04-21T17:50:31.704Z,1.70
2024-04-21T17:53:01.615Z,1.50
2024-04-21T17:55:29.016Z,1.50
2024-04-21T17:58:01.569Z,1.30
2024-04-21T18:00:29.199Z,1.63
2024-04-21T18:02:58.915Z,1.40
2024-04-21T18:05:25.992Z,1.30
2024-04-21T18:07:56.092Z,1.50
2024-04-21T18:10:23.524Z,1.40
2024-04-21T18:12:53.206Z,1.40
2024-04-21T18:15:22.869Z,1.10
2024-04-21T18:17:53.145Z,1.30
2024-04-21T18:20:20.165Z,1.10
2024-04-21T18:22:49.798Z,1.40
2024-04-21T18:25:17.635Z,1.20
2024-04-21T18:27:47.353Z,1.30
2024-04-21T18:30:14.387Z,1.27
2024-04-21T18:32:46.785Z,1.40
2024-04-21T18:35:14.046Z,1.50
2024-04-21T18:37:43.722Z,1.50
2024-04-21T18:40:11.421Z,1.20
2024-04-21T18:42:41.111Z,1.20
2024-04-21T18:45:11.032Z,1.10
2024-04-21T18:47:41.036Z,1.03
2024-04-21T18:50:10.979Z,1.00
2024-04-21T18:52:40.897Z,0.80
2024-04-21T18:55:08.240Z,1.00
2024-04-21T18:57:37.894Z,0.90
2024-04-21T19:00:06.751Z,1.20
2024-04-21T19:02:36.468Z,1.17
2024-04-21T19:05:03.583Z,1.13
2024-04-21T19:07:36.106Z,1.20
2024-04-21T19:10:08.391Z,1.27
2024-04-21T19:12:38.666Z,1.10
2024-04-21T19:15:06.886Z,1.10
2024-04-21T19:17:37.519Z,1.60
2024-04-21T19:20:05.583Z,1.53
2024-04-21T19:22:38.591Z,1.20
2024-04-21T19:25:07.250Z,1.23
2024-04-21T19:27:36.904Z,1.30
2024-04-21T19:30:04.260Z,1.50
2024-04-21T19:32:34.211Z,1.60
2024-04-21T19:35:01.501Z,1.20
2024-04-21T19:37:31.258Z,1.10
2024-04-21T19:40:01.329Z,1.20
2024-04-21T19:42:31.060Z,1.20
2024-04-21T19:44:58.426Z,1.03
2024-04-21T19:47:28.348Z,1.20
2024-04-21T19:49:55.836Z,1.13
2024-04-21T19:52:25.760Z,1.50
2024-04-21T19:54:53.961Z,1.43
2024-04-21T19:57:26.380Z,1.50
2024-04-21T19:59:53.905Z,1.20
2024-04-21T20:02:24.246Z,1.40
2024-04-21T20:04:51.475Z,1.30
2024-04-21T20:07:21.498Z,1.20
2024-04-21T20:09:52.527Z,1.20
2024-04-21T20:12:22.179Z,1.30
2024-04-21T20:15:12.149Z,1.23
2024-04-21T20:17:57.595Z,1.40
2024-04-21T20:20:27.384Z,1.30
2024-04-21T20:22:57.175Z,1.23
2024-04-21T20:25:26.856Z,1.40
2024-04-21T20:27:54.873Z,1.47
2024-04-21T20:30:27.182Z,1.40
2024-04-21T20:32:54.291Z,1.47
2024-04-21T20:35:23.926Z,1.77
2024-04-21T20:37:51.581Z,1.50
2024-04-21T20:40:21.374Z,1.40
2024-04-21T20:42:48.424Z,1.50
2024-04-21T20:45:18.380Z,1.30
2024-04-21T20:47:48.908Z,1.40
2024-04-21T20:50:18.634Z,1.53
2024-04-21T20:52:48.259Z,1.57
2024-04-21T20:55:18.331Z,1.47
2024-04-21T20:57:45.478Z,1.40
2024-04-21T21:00:15.630Z,1.40
2024-04-21T21:02:42.736Z,1.30
2024-04-21T21:05:15.137Z,1.27
2024-04-21T21:07:42.148Z,1.17
2024-04-21T21:10:11.964Z,1.40
2024-04-21T21:12:39.039Z,1.33
2024-04-21T21:15:09.224Z,1.53
2024-04-21T21:17:37.740Z,1.20
2024-04-21T21:20:09.466Z,1.70
2024-04-21T21:22:39.779Z,1.60
2024-04-21T21:25:09.855Z,1.30
2024-04-21T21:27:36.835Z,1.33
2024-04-21T21:30:06.969Z,1.43
2024-04-21T21:32:34.608Z,1.20
2024-04-21T21:35:06.032Z,1.50
2024-04-21T21:37:34.590Z,1.50
2024-04-21T21:40:07.608Z,1.57
2024-04-21T21:42:34.673Z,1.40
2024-04-21T21:45:04.344Z,1.30
2024-04-21T21:47:31.405Z,1.17
2024-04-21T21:50:01.070Z,1.30
2024-04-21T21:52:28.151Z,1.40
2024-04-21T21:54:57.878Z,1.20
2024-04-21T21:57:27.570Z,1.20
2024-04-21T21:59:57.267Z,1.20
2024-04-21T22:02:24.454Z,1.53
2024-04-21T22:04:54.158Z,1.20
2024-04-21T22:07:21.183Z,1.53
2024-04-21T22:09:51.052Z,1.00
2024-04-21T22:12:18.096Z,1.30
2024-04-21T22:14:51.372Z,1.30
2024-04-21T22:17:18.408Z,1.20
2024-04-21T22:19:48.115Z,1.23
2024-04-21T22:22:15.186Z,1.20
2024-04-21T22:24:45.506Z,1.40
2024-04-21T22:27:12.592Z,1.30
2024-04-21T22:29:42.511Z,1.30
2024-04-21T22:32:12.230Z,1.03
2024-04-21T22:34:42.710Z,1.13
2024-04-21T22:37:10.849Z,1.30
2024-04-21T22:39:42.465Z,1.23
2024-04-21T22:42:11.610Z,1.20
2024-04-21T22:44:41.343Z,1.33
2024-04-21T22:47:08.643Z,1.20
2024-04-21T22:49:41.022Z,1.20
2024-04-21T22:52:08.194Z,1.20
2024-04-21T22:54:37.855Z,1.37
2024-04-21T22:57:05.759Z,1.30
2024-04-21T22:59:35.405Z,1.10
2024-04-21T23:02:02.549Z,1.20
2024-04-21T23:04:32.434Z,1.00
2024-04-21T23:07:02.589Z,1.33
2024-04-21T23:09:33.793Z,1.20
2024-04-21T23:12:01.509Z,1.20
2024-04-21T23:14:31.904Z,1.23
2024-04-21T23:16:58.916Z,1.30
2024-04-21T23:19:28.636Z,1.30
2024-04-21T23:21:55.762Z,1.30
2024-04-21T23:24:28.136Z,1.20
2024-04-21T23:26:55.148Z,1.30
2024-04-21T23:29:24.846Z,1.20
2024-04-21T23:31:51.888Z,1.30
2024-04-21T23:34:21.960Z,1.27
2024-04-21T23:36:49.041Z,1.30
2024-04-21T23:39:19.490Z,1.07
2024-04-21T23:41:49.159Z,1.00
2024-04-21T23:44:18.814Z,1.20
2024-04-21T23:46:46.443Z,1.30
2024-04-21T23:49:17.353Z,1.20
2024-04-21T23:51:44.398Z,1.30
2024-04-21T23:54:14.066Z,1.20
2024-04-21T23:56:41.066Z,0.93
2024-04-21T23:59:13.412Z,1.00
